createdAt,value
2019-03-11T00:00:01.589Z,1004.62
2019-03-11T00:01:01.610Z,1004.61
2019-03-11T00:02:01.556Z,1004.65
2019-03-11T00:03:01.542Z,1004.79
2019-03-11T00:04:01.531Z,1004.78
2019-03-11T00:05:01.538Z,1004.86
2019-03-11T00:06:01.518Z,1004.82
2019-03-11T00:07:01.546Z,1004.84
2019-03-11T00:08:01.489Z,1004.80
2019-03-11T00:09:01.479Z,1004.77
2019-03-11T00:10:01.465Z,1004.86
2019-03-11T00:11:01.469Z,1004.84
2019-03-11T00:12:01.444Z,1004.91
2019-03-11T00:13:01.451Z,1004.86
2019-03-11T00:14:01.422Z,1004.87
2019-03-11T00:15:01.410Z,1004.88
2019-03-11T00:16:01.421Z,1004.83
2019-03-11T00:17:01.392Z,1004.85
2019-03-11T00:18:01.380Z,1004.85
2019-03-11T00:19:01.387Z,1004.86
2019-03-11T00:20:01.357Z,1004.74
2019-03-11T00:21:01.346Z,1004.82
2019-03-11T00:22:01.352Z,1004.70
2019-03-11T00:23:01.322Z,1004.79
2019-03-11T00:24:01.310Z,1004.75
2019-03-11T00:25:01.348Z,1004.76
2019-03-11T00:26:01.291Z,1004.76
2019-03-11T00:27:01.278Z,1004.70
2019-03-11T00:28:01.283Z,1004.71
2019-03-11T00:29:01.260Z,1004.68
2019-03-11T00:30:01.251Z,1004.68
2019-03-11T00:31:01.277Z,1004.66
2019-03-11T00:32:01.223Z,1004.70
2019-03-11T00:33:01.236Z,1004.69
2019-03-11T00:34:01.206Z,1004.65
2019-03-11T00:35:01.192Z,1004.66
2019-03-11T00:36:01.179Z,1004.75
2019-03-11T00:37:01.190Z,1004.66
2019-03-11T00:38:01.183Z,1004.72
2019-03-11T00:39:01.174Z,1004.67
2019-03-11T00:40:01.134Z,1004.61
2019-03-11T00:41:01.123Z,1004.64
2019-03-11T00:42:01.118Z,1004.69
2019-03-11T00:43:01.106Z,1004.69
2019-03-11T00:44:01.142Z,1004.70
2019-03-11T00:45:01.082Z,1004.85
2019-03-11T00:46:01.072Z,1004.86
2019-03-11T00:47:01.060Z,1004.83
2019-03-11T00:48:02.538Z,1005.01
2019-03-11T00:49:01.036Z,1004.94
2019-03-11T00:50:01.089Z,1004.90
2019-03-11T00:51:01.024Z,1004.88
2019-03-11T00:52:01.004Z,1004.89
2019-03-11T00:53:00.994Z,1004.83
2019-03-11T00:54:00.990Z,1004.74
2019-03-11T00:55:00.975Z,1004.75
2019-03-11T00:56:00.975Z,1004.74
2019-03-11T00:57:01.002Z,1004.74
2019-03-11T00:58:00.940Z,1004.76
2019-03-11T00:59:00.924Z,1004.75
2019-03-11T01:00:00.914Z,1004.77
2019-03-11T01:01:00.924Z,1004.75
2019-03-11T01:02:00.898Z,1004.72
2019-03-11T01:03:00.917Z,1004.74
2019-03-11T01:04:00.893Z,1004.82
2019-03-11T01:05:00.862Z,1004.77
2019-03-11T01:06:00.850Z,1004.75
2019-03-11T01:07:00.867Z,1004.79
2019-03-11T01:08:00.826Z,1004.73
2019-03-11T01:09:00.862Z,1004.74
2019-03-11T01:10:00.808Z,1004.76
2019-03-11T01:11:00.793Z,1004.74
2019-03-11T01:12:00.782Z,1004.69
2019-03-11T01:13:00.783Z,1004.68
2019-03-11T01:14:00.763Z,1004.70
2019-03-11T01:15:00.783Z,1004.67
2019-03-11T01:16:00.740Z,1004.70
2019-03-11T01:17:00.730Z,1004.61
2019-03-11T01:18:00.732Z,1004.58
2019-03-11T01:19:00.711Z,1004.56
2019-03-11T01:20:00.696Z,1004.58
2019-03-11T01:21:00.714Z,1004.58
2019-03-11T01:22:00.673Z,1004.57
2019-03-11T01:23:00.688Z,1004.54
2019-03-11T01:24:00.652Z,1004.57
2019-03-11T01:25:00.641Z,1004.61
2019-03-11T01:26:00.654Z,1004.58
2019-03-11T01:27:00.618Z,1004.59
2019-03-11T01:28:00.606Z,1004.66
2019-03-11T01:29:00.613Z,1004.67
2019-03-11T01:30:00.588Z,1004.69
2019-03-11T01:31:00.578Z,1004.72
2019-03-11T01:32:00.601Z,1004.59
2019-03-11T01:33:00.554Z,1004.75
2019-03-11T01:34:00.545Z,1004.75
2019-03-11T01:35:00.542Z,1004.69
2019-03-11T01:36:00.522Z,1004.66
2019-03-11T01:37:00.507Z,1004.69
2019-03-11T01:38:00.523Z,1004.66
2019-03-11T01:39:00.521Z,1004.62
2019-03-11T01:40:00.478Z,1004.65
2019-03-11T01:41:00.465Z,1004.67
2019-03-11T01:42:00.456Z,1004.65
2019-03-11T01:43:00.447Z,1004.65
2019-03-11T01:44:00.442Z,1004.63
2019-03-11T01:45:00.475Z,1004.64
2019-03-11T01:46:00.426Z,1004.67
2019-03-11T01:47:00.406Z,1004.65
2019-03-11T01:48:00.390Z,1004.65
2019-03-11T01:49:00.380Z,1004.54
2019-03-11T01:50:00.424Z,1004.57
2019-03-11T01:51:00.383Z,1004.61
2019-03-11T01:52:00.358Z,1004.55
2019-03-11T01:53:00.333Z,1004.62
2019-03-11T01:54:00.323Z,1004.57
2019-03-11T01:55:00.328Z,1004.59
2019-03-11T01:56:00.300Z,1004.55
2019-03-11T01:57:00.338Z,1004.59
2019-03-11T01:58:00.291Z,1004.54
2019-03-11T01:59:00.268Z,1004.56
2019-03-11T02:00:00.353Z,1004.51
2019-03-11T02:01:00.249Z,1004.52
2019-03-11T02:02:00.235Z,1004.51
2019-03-11T02:03:00.266Z,1004.48
2019-03-11T02:04:00.214Z,1004.50
2019-03-11T02:05:00.370Z,1004.47
2019-03-11T02:06:00.194Z,1004.45
2019-03-11T02:07:00.179Z,1004.46
2019-03-11T02:08:00.167Z,1004.50
2019-03-11T02:09:00.236Z,1004.46
2019-03-11T02:10:00.350Z,1004.48
2019-03-11T02:11:00.140Z,1004.43
2019-03-11T02:12:00.123Z,1004.49
2019-03-11T02:13:00.115Z,1004.48
2019-03-11T02:14:00.106Z,1004.44
2019-03-11T02:15:00.163Z,1004.43
2019-03-11T02:16:00.079Z,1004.42
2019-03-11T02:17:00.070Z,1004.40
2019-03-11T02:18:00.058Z,1004.35
2019-03-11T02:19:00.049Z,1004.36
2019-03-11T02:20:00.064Z,1004.37
2019-03-11T02:21:00.069Z,1004.37
2019-03-11T02:22:00.015Z,1004.43
2019-03-11T02:23:00.002Z,1004.39
2019-03-11T02:23:59.992Z,1004.40
2019-03-11T02:24:59.980Z,1004.35
2019-03-11T02:25:59.980Z,1004.37
2019-03-11T02:27:00.000Z,1004.42
2019-03-11T02:27:59.948Z,1004.38
2019-03-11T02:28:59.939Z,1004.40
2019-03-11T02:29:59.926Z,1004.40
2019-03-11T02:30:59.930Z,1004.32
2019-03-11T02:31:59.907Z,1004.36
2019-03-11T02:32:59.920Z,1004.35
2019-03-11T02:33:59.916Z,1004.35
2019-03-11T02:34:59.874Z,1004.41
2019-03-11T02:35:59.858Z,1004.36
2019-03-11T02:36:59.849Z,1004.34
2019-03-11T02:38:00.012Z,1004.31
2019-03-11T02:38:59.854Z,1004.30
2019-03-11T02:39:59.876Z,1004.33
2019-03-11T02:40:59.803Z,1004.36
2019-03-11T02:41:59.817Z,1004.34
2019-03-11T02:42:59.782Z,1004.39
2019-03-11T02:43:59.785Z,1004.33
2019-03-11T02:44:59.762Z,1004.37
2019-03-11T02:45:59.775Z,1004.41
2019-03-11T02:46:59.748Z,1004.39
2019-03-11T02:47:59.736Z,1004.37
2019-03-11T02:48:59.730Z,1004.33
2019-03-11T02:49:59.703Z,1004.39
2019-03-11T02:50:59.693Z,1004.42
2019-03-11T02:51:59.718Z,1004.39
2019-03-11T02:52:59.676Z,1004.37
2019-03-11T02:53:59.660Z,1004.34
2019-03-11T02:54:59.667Z,1004.36
2019-03-11T02:55:59.642Z,1004.33
2019-03-11T02:56:59.667Z,1004.35
2019-03-11T02:57:59.658Z,1004.33
2019-03-11T02:58:59.605Z,1004.28
2019-03-11T02:59:59.636Z,1004.36
2019-03-11T03:00:59.585Z,1004.36
2019-03-11T03:01:59.586Z,1004.41
2019-03-11T03:02:59.581Z,1004.35
2019-03-11T03:03:59.606Z,1004.25
2019-03-11T03:04:59.547Z,1004.32
2019-03-11T03:05:59.539Z,1004.31
2019-03-11T03:06:59.525Z,1004.36
2019-03-11T03:07:59.507Z,1004.32
2019-03-11T03:08:59.523Z,1004.37
2019-03-11T03:09:59.531Z,1004.36
2019-03-11T03:10:59.497Z,1004.28
2019-03-11T03:11:59.462Z,1004.27
2019-03-11T03:12:59.453Z,1004.30
2019-03-11T03:13:59.448Z,1004.29
2019-03-11T03:14:59.431Z,1004.30
2019-03-11T03:15:59.446Z,1004.33
2019-03-11T03:16:59.431Z,1004.26
2019-03-11T03:17:59.419Z,1004.26
2019-03-11T03:18:59.386Z,1004.22
2019-03-11T03:19:59.468Z,1004.17
2019-03-11T03:20:59.382Z,1004.23
2019-03-11T03:21:59.388Z,1004.23
2019-03-11T03:22:59.375Z,1004.21
2019-03-11T03:23:59.330Z,1004.27
2019-03-11T03:24:59.321Z,1004.28
2019-03-11T03:25:59.308Z,1004.25
2019-03-11T03:26:59.298Z,1004.28
2019-03-11T03:27:59.404Z,1004.24
2019-03-11T03:28:59.290Z,1004.22
2019-03-11T03:29:59.278Z,1004.17
2019-03-11T03:30:59.415Z,1004.23
2019-03-11T03:31:59.259Z,1004.23
2019-03-11T03:32:59.247Z,1004.23
2019-03-11T03:33:59.257Z,1004.27
2019-03-11T03:34:59.261Z,1004.24
2019-03-11T03:35:59.208Z,1004.31
2019-03-11T03:36:59.198Z,1004.31
2019-03-11T03:37:59.181Z,1004.29
2019-03-11T03:38:59.166Z,1004.30
2019-03-11T03:39:59.159Z,1004.29
2019-03-11T03:40:59.176Z,1004.28
2019-03-11T03:41:59.170Z,1004.26
2019-03-11T03:42:59.390Z,1004.24
2019-03-11T03:43:59.139Z,1004.26
2019-03-11T03:44:59.099Z,1004.28
2019-03-11T03:45:59.094Z,1004.29
2019-03-11T03:46:59.117Z,1004.28
2019-03-11T03:47:59.097Z,1004.30
2019-03-11T03:48:59.058Z,1004.34
2019-03-11T03:49:59.044Z,1004.34
2019-03-11T03:50:59.047Z,1004.29
2019-03-11T03:51:59.040Z,1004.33
2019-03-11T03:52:59.067Z,1004.30
2019-03-11T03:53:58.998Z,1004.30
2019-03-11T03:54:59.002Z,1004.29
2019-03-11T03:55:58.980Z,1004.33
2019-03-11T03:56:58.973Z,1004.20
2019-03-11T03:57:58.955Z,1004.26
2019-03-11T03:58:59.002Z,1004.29
2019-03-11T03:59:58.940Z,1004.28
2019-03-11T04:00:58.942Z,1004.27
2019-03-11T04:01:58.915Z,1004.27
2019-03-11T04:02:58.899Z,1004.21
2019-03-11T04:03:58.891Z,1004.29
2019-03-11T04:04:58.905Z,1004.32
2019-03-11T04:05:58.883Z,1004.27
2019-03-11T04:06:58.855Z,1004.29
2019-03-11T04:07:58.847Z,1004.29
2019-03-11T04:08:58.847Z,1004.24
2019-03-11T04:09:58.827Z,1004.29
2019-03-11T04:10:58.889Z,1004.26
2019-03-11T04:11:58.822Z,1004.34
2019-03-11T04:12:58.790Z,1004.32
2019-03-11T04:13:58.777Z,1004.29
2019-03-11T04:14:58.774Z,1004.35
2019-03-11T04:15:58.760Z,1004.36
2019-03-11T04:16:58.763Z,1004.39
2019-03-11T04:17:58.750Z,1004.38
2019-03-11T04:18:58.829Z,1004.39
2019-03-11T04:19:58.716Z,1004.44
2019-03-11T04:20:58.703Z,1004.44
2019-03-11T04:21:58.696Z,1004.41
2019-03-11T04:22:58.701Z,1004.42
2019-03-11T04:23:58.703Z,1004.46
2019-03-11T04:24:58.660Z,1004.42
2019-03-11T04:25:58.652Z,1004.48
2019-03-11T04:26:58.637Z,1004.50
2019-03-11T04:27:58.626Z,1004.55
2019-03-11T04:28:58.643Z,1004.58
2019-03-11T04:29:58.620Z,1004.58
2019-03-11T04:30:58.598Z,1004.61
2019-03-11T04:31:58.615Z,1004.58
2019-03-11T04:32:58.568Z,1004.52
2019-03-11T04:33:58.558Z,1004.53
2019-03-11T04:34:58.582Z,1004.51
2019-03-11T04:35:58.549Z,1004.49
2019-03-11T04:36:58.535Z,1004.54
2019-03-11T04:37:58.515Z,1004.57
2019-03-11T04:38:58.500Z,1004.59
2019-03-11T04:39:58.498Z,1004.56
2019-03-11T04:40:58.551Z,1004.60
2019-03-11T04:41:58.474Z,1004.59
2019-03-11T04:42:58.458Z,1004.64
2019-03-11T04:43:58.447Z,1004.59
2019-03-11T04:44:58.440Z,1004.57
2019-03-11T04:45:58.427Z,1004.54
2019-03-11T04:46:58.473Z,1004.56
2019-03-11T04:47:58.405Z,1004.53
2019-03-11T04:48:58.390Z,1004.50
2019-03-11T04:50:00.205Z,1004.54
2019-03-11T04:50:58.370Z,1004.57
2019-03-11T04:51:58.359Z,1004.53
2019-03-11T04:52:58.404Z,1004.49
2019-03-11T04:53:58.335Z,1004.54
2019-03-11T04:54:58.325Z,1004.51
2019-03-11T04:55:58.315Z,1004.49
2019-03-11T04:56:58.305Z,1004.50
2019-03-11T04:57:58.310Z,1004.53
2019-03-11T04:58:58.345Z,1004.57
2019-03-11T04:59:58.269Z,1004.56
2019-03-11T05:00:58.258Z,1004.62
2019-03-11T05:01:58.258Z,1004.69
2019-03-11T05:02:58.233Z,1004.69
2019-03-11T05:03:58.230Z,1004.73
2019-03-11T05:04:58.278Z,1004.70
2019-03-11T05:05:58.207Z,1004.75
2019-03-11T05:06:58.193Z,1004.78
2019-03-11T05:07:58.178Z,1004.81
2019-03-11T05:08:58.188Z,1004.82
2019-03-11T05:09:58.158Z,1004.87
2019-03-11T05:10:58.169Z,1004.71
2019-03-11T05:11:58.157Z,1004.74
2019-03-11T05:12:58.127Z,1004.80
2019-03-11T05:13:58.114Z,1004.78
2019-03-11T05:14:58.118Z,1004.76
2019-03-11T05:15:58.092Z,1004.75
2019-03-11T05:16:58.128Z,1004.73
2019-03-11T05:17:58.086Z,1004.82
2019-03-11T05:18:58.061Z,1004.81
2019-03-11T05:19:58.062Z,1004.79
2019-03-11T05:20:58.042Z,1004.82
2019-03-11T05:21:58.031Z,1004.85
2019-03-11T05:22:58.046Z,1004.84
2019-03-11T05:23:58.020Z,1004.88
2019-03-11T05:24:57.991Z,1004.92
2019-03-11T05:25:57.995Z,1004.94
2019-03-11T05:26:57.990Z,1004.98
2019-03-11T05:27:57.963Z,1004.93
2019-03-11T05:28:58.016Z,1004.88
2019-03-11T05:29:57.942Z,1004.89
2019-03-11T05:30:57.925Z,1004.88
2019-03-11T05:31:57.938Z,1004.88
2019-03-11T05:32:57.920Z,1004.90
2019-03-11T05:33:57.897Z,1004.89
2019-03-11T05:34:57.915Z,1004.86
2019-03-11T05:35:57.871Z,1004.82
2019-03-11T05:36:57.865Z,1004.84
2019-03-11T05:37:57.868Z,1004.82
2019-03-11T05:38:57.844Z,1004.80
2019-03-11T05:39:57.836Z,1004.83
2019-03-11T05:40:57.871Z,1004.86
2019-03-11T05:41:57.812Z,1004.93
2019-03-11T05:42:57.800Z,1004.94
2019-03-11T05:43:57.801Z,1004.99
2019-03-11T05:44:57.793Z,1005.01
2019-03-11T05:45:57.765Z,1004.95
2019-03-11T05:46:57.800Z,1004.94
2019-03-11T05:47:57.745Z,1004.96
2019-03-11T05:48:57.744Z,1004.92
2019-03-11T05:49:57.723Z,1004.95
2019-03-11T05:50:57.721Z,1004.94
2019-03-11T05:51:57.697Z,1004.93
2019-03-11T05:52:57.705Z,1004.98
2019-03-11T05:53:57.676Z,1004.94
2019-03-11T05:54:57.666Z,1004.91
2019-03-11T05:55:57.763Z,1004.97
2019-03-11T05:56:59.076Z,1004.94
2019-03-11T05:57:57.634Z,1004.93
2019-03-11T05:58:57.654Z,1004.94
2019-03-11T05:59:57.614Z,1004.91
2019-03-11T06:00:57.601Z,1004.92
2019-03-11T06:01:57.605Z,1004.90
2019-03-11T06:02:57.581Z,1004.92
2019-03-11T06:03:57.565Z,1004.90
2019-03-11T06:04:57.579Z,1004.94
2019-03-11T06:05:57.544Z,1004.96
2019-03-11T06:06:57.534Z,1004.97
2019-03-11T06:07:57.539Z,1004.88
2019-03-11T06:08:57.511Z,1004.88
2019-03-11T06:09:57.500Z,1004.91
2019-03-11T06:10:57.540Z,1004.89
2019-03-11T06:11:57.479Z,1004.99
2019-03-11T06:12:57.467Z,1005.00
2019-03-11T06:13:57.486Z,1004.92
2019-03-11T06:14:57.448Z,1004.90
2019-03-11T06:15:57.435Z,1004.93
2019-03-11T06:16:57.456Z,1004.96
2019-03-11T06:17:57.414Z,1004.91
2019-03-11T06:18:57.418Z,1004.96
2019-03-11T06:19:57.406Z,1004.95
2019-03-11T06:20:57.381Z,1005.01
2019-03-11T06:21:57.391Z,1005.00
2019-03-11T06:22:57.397Z,1005.00
2019-03-11T06:23:57.349Z,1005.01
2019-03-11T06:24:57.335Z,1005.05
2019-03-11T06:25:57.339Z,1005.02
2019-03-11T06:26:57.312Z,1005.00
2019-03-11T06:27:57.309Z,1005.07
2019-03-11T06:28:57.319Z,1005.03
2019-03-11T06:29:57.285Z,1005.11
2019-03-11T06:30:57.280Z,1005.17
2019-03-11T06:31:57.262Z,1005.11
2019-03-11T06:32:57.249Z,1005.12
2019-03-11T06:33:57.233Z,1005.16
2019-03-11T06:34:57.274Z,1005.16
2019-03-11T06:35:57.232Z,1005.06
2019-03-11T06:36:57.202Z,1005.13
2019-03-11T06:37:57.192Z,1005.13
2019-03-11T06:39:05.370Z,1005.09
2019-03-11T06:39:58.168Z,1005.07
2019-03-11T06:40:57.208Z,1005.16
2019-03-11T06:41:57.163Z,1005.18
2019-03-11T06:42:57.135Z,1005.23
2019-03-11T06:43:57.124Z,1005.17
2019-03-11T06:44:57.117Z,1005.17
2019-03-11T06:45:57.103Z,1005.24
2019-03-11T06:46:57.136Z,1005.15
2019-03-11T06:47:57.095Z,1005.21
2019-03-11T06:48:57.070Z,1005.24
2019-03-11T06:49:57.059Z,1005.28
2019-03-11T06:50:57.049Z,1005.26
2019-03-11T06:51:57.038Z,1005.31
2019-03-11T06:52:57.095Z,1005.27
2019-03-11T06:53:57.017Z,1005.27
2019-03-11T06:54:57.005Z,1005.34
2019-03-11T06:55:56.996Z,1005.33
2019-03-11T06:56:56.983Z,1005.40
2019-03-11T06:57:56.983Z,1005.36
2019-03-11T06:58:57.009Z,1005.37
2019-03-11T06:59:56.950Z,1005.35
2019-03-11T07:00:56.950Z,1005.41
2019-03-11T07:01:56.934Z,1005.38
2019-03-11T07:02:56.920Z,1005.42
2019-03-11T07:03:56.918Z,1005.44
2019-03-11T07:04:56.898Z,1005.46
2019-03-11T07:05:56.911Z,1005.42
2019-03-11T07:06:56.892Z,1005.45
2019-03-11T07:07:56.861Z,1005.46
2019-03-11T07:08:56.848Z,1005.49
2019-03-11T07:09:56.842Z,1005.47
2019-03-11T07:10:56.841Z,1005.50
2019-03-11T07:11:56.855Z,1005.48
2019-03-11T07:12:56.820Z,1005.58
2019-03-11T07:13:56.795Z,1005.51
2019-03-11T07:14:56.785Z,1005.53
2019-03-11T07:15:56.792Z,1005.53
2019-03-11T07:16:56.776Z,1005.53
2019-03-11T07:17:56.794Z,1005.58
2019-03-11T07:18:56.748Z,1005.62
2019-03-11T07:19:56.730Z,1005.55
2019-03-11T07:20:56.724Z,1005.69
2019-03-11T07:21:56.733Z,1005.60
2019-03-11T07:22:56.698Z,1005.66
2019-03-11T07:23:56.708Z,1005.64
2019-03-11T07:24:56.679Z,1005.66
2019-03-11T07:25:56.663Z,1005.66
2019-03-11T07:26:56.653Z,1005.69
2019-03-11T07:27:56.663Z,1005.66
2019-03-11T07:28:56.628Z,1005.67
2019-03-11T07:29:56.665Z,1005.61
2019-03-11T07:30:56.616Z,1005.68
2019-03-11T07:31:56.602Z,1005.65
2019-03-11T07:32:56.595Z,1005.67
2019-03-11T07:33:56.592Z,1005.61
2019-03-11T07:35:07.712Z,1005.64
2019-03-11T07:35:57.573Z,1005.66
2019-03-11T07:36:56.549Z,1005.63
2019-03-11T07:37:56.532Z,1005.60
2019-03-11T07:38:56.539Z,1005.70
2019-03-11T07:39:56.508Z,1005.75
2019-03-11T07:40:56.501Z,1005.68
2019-03-11T07:41:56.515Z,1005.70
2019-03-11T07:42:56.481Z,1005.70
2019-03-11T07:43:56.466Z,1005.61
2019-03-11T07:44:56.474Z,1005.74
2019-03-11T07:45:56.444Z,1005.66
2019-03-11T07:46:56.436Z,1005.75
2019-03-11T07:47:56.451Z,1005.81
2019-03-11T07:48:56.411Z,1005.85
2019-03-11T07:49:56.400Z,1005.85
2019-03-11T07:50:56.403Z,1005.84
2019-03-11T07:51:56.378Z,1005.89
2019-03-11T07:52:56.383Z,1005.86
2019-03-11T07:53:56.357Z,1005.88
2019-03-11T07:54:56.390Z,1005.86
2019-03-11T07:55:56.335Z,1005.89
2019-03-11T07:56:56.339Z,1005.92
2019-03-11T07:57:56.322Z,1006.00
2019-03-11T07:58:56.302Z,1006.00
2019-03-11T07:59:56.291Z,1005.94
2019-03-11T08:00:56.350Z,1005.99
2019-03-11T08:01:56.270Z,1006.04
2019-03-11T08:02:56.277Z,1006.07
2019-03-11T08:03:56.262Z,1006.06
2019-03-11T08:04:56.236Z,1006.09
2019-03-11T08:05:56.223Z,1006.07
2019-03-11T08:06:56.213Z,1006.11
2019-03-11T08:07:56.301Z,1006.13
2019-03-11T08:08:56.193Z,1006.15
2019-03-11T08:09:56.189Z,1006.17
2019-03-11T08:10:56.171Z,1006.15
2019-03-11T08:11:56.159Z,1006.19
2019-03-11T08:12:56.147Z,1006.21
2019-03-11T08:13:56.190Z,1006.18
2019-03-11T08:14:56.127Z,1006.20
2019-03-11T08:15:56.115Z,1006.24
2019-03-11T08:16:56.106Z,1006.20
2019-03-11T08:17:56.093Z,1006.21
2019-03-11T08:18:56.095Z,1006.19
2019-03-11T08:19:56.113Z,1006.19
2019-03-11T08:20:56.056Z,1006.13
2019-03-11T08:21:56.048Z,1006.23
2019-03-11T08:22:56.040Z,1006.26
2019-03-11T08:23:56.024Z,1006.24
2019-03-11T08:24:56.035Z,1006.28
2019-03-11T08:25:56.059Z,1006.25
2019-03-11T08:26:55.993Z,1006.25
2019-03-11T08:27:55.984Z,1006.22
2019-03-11T08:28:55.976Z,1006.21
2019-03-11T08:29:55.960Z,1006.25
2019-03-11T08:30:55.962Z,1006.26
2019-03-11T08:31:55.969Z,1006.27
2019-03-11T08:32:55.951Z,1006.27
2019-03-11T08:33:55.914Z,1006.28
2019-03-11T08:34:55.903Z,1006.27
2019-03-11T08:35:55.896Z,1006.30
2019-03-11T08:36:55.882Z,1006.33
2019-03-11T08:37:55.876Z,1006.28
2019-03-11T08:38:55.923Z,1006.22
2019-03-11T08:39:55.851Z,1006.26
2019-03-11T08:40:55.840Z,1006.29
2019-03-11T08:41:55.829Z,1006.35
2019-03-11T08:42:55.818Z,1006.38
2019-03-11T08:43:55.809Z,1006.42
2019-03-11T08:44:55.852Z,1006.41
2019-03-11T08:45:55.785Z,1006.41
2019-03-11T08:46:55.775Z,1006.39
2019-03-11T08:47:55.762Z,1006.41
2019-03-11T08:48:55.752Z,1006.46
2019-03-11T08:49:55.779Z,1006.49
2019-03-11T08:50:55.730Z,1006.51
2019-03-11T08:51:55.762Z,1006.54
2019-03-11T08:52:55.711Z,1006.61
2019-03-11T08:53:55.705Z,1006.64
2019-03-11T08:54:55.686Z,1006.60
2019-03-11T08:55:55.684Z,1006.56
2019-03-11T08:56:55.665Z,1006.48
2019-03-11T08:57:55.669Z,1006.49
2019-03-11T08:58:55.641Z,1006.41
2019-03-11T08:59:55.641Z,1006.40
2019-03-11T09:00:55.622Z,1006.43
2019-03-11T09:01:55.630Z,1006.47
2019-03-11T09:02:55.596Z,1006.50
2019-03-11T09:03:55.587Z,1006.40
2019-03-11T09:04:55.612Z,1006.39
2019-03-11T09:05:55.572Z,1006.35
2019-03-11T09:06:55.556Z,1006.19
2019-03-11T09:07:55.554Z,1006.28
2019-03-11T09:08:55.533Z,1006.43
2019-03-11T09:09:55.522Z,1006.49
2019-03-11T09:10:55.512Z,1006.45
2019-03-11T09:11:55.519Z,1006.42
2019-03-11T09:12:55.507Z,1006.38
2019-03-11T09:13:55.477Z,1006.42
2019-03-11T09:14:55.466Z,1006.44
2019-03-11T09:15:55.455Z,1006.32
2019-03-11T09:16:55.464Z,1006.32
2019-03-11T09:17:55.462Z,1006.34
2019-03-11T09:18:55.446Z,1006.39
2019-03-11T09:19:55.412Z,1006.38
2019-03-11T09:20:55.396Z,1006.44
2019-03-11T09:21:55.393Z,1006.48
2019-03-11T09:22:55.396Z,1006.40
2019-03-11T09:23:55.411Z,1006.45
2019-03-11T09:24:55.353Z,1006.43
2019-03-11T09:25:55.345Z,1006.54
2019-03-11T09:26:55.329Z,1006.57
2019-03-11T09:27:55.323Z,1006.57
2019-03-11T09:28:55.329Z,1006.67
2019-03-11T09:29:55.346Z,1006.65
2019-03-11T09:30:55.293Z,1006.69
2019-03-11T09:31:55.278Z,1006.74
2019-03-11T09:32:55.269Z,1006.83
2019-03-11T09:33:55.278Z,1006.81
2019-03-11T09:34:55.247Z,1006.86
2019-03-11T09:35:55.281Z,1006.84
2019-03-11T09:36:55.223Z,1006.87
2019-03-11T09:37:55.214Z,1006.87
2019-03-11T09:38:55.199Z,1006.86
2019-03-11T09:39:55.206Z,1006.90
2019-03-11T09:40:55.180Z,1006.99
2019-03-11T09:41:55.194Z,1006.98
2019-03-11T09:42:55.159Z,1006.97
2019-03-11T09:43:55.146Z,1007.06
2019-03-11T09:44:55.140Z,1007.02
2019-03-11T09:45:55.144Z,1007.05
2019-03-11T09:46:55.130Z,1007.04
2019-03-11T09:47:55.101Z,1007.03
2019-03-11T09:48:55.111Z,1007.15
2019-03-11T09:49:55.080Z,1007.13
2019-03-11T09:50:55.076Z,1007.17
2019-03-11T09:51:55.056Z,1007.19
2019-03-11T09:52:55.060Z,1007.19
2019-03-11T09:53:55.034Z,1007.21
2019-03-11T09:54:55.064Z,1007.17
2019-03-11T09:55:55.014Z,1007.17
2019-03-11T09:56:55.015Z,1007.18
2019-03-11T09:57:54.993Z,1007.17
2019-03-11T09:58:54.992Z,1007.13
2019-03-11T09:59:54.991Z,1007.15
2019-03-11T10:00:54.983Z,1007.15
2019-03-11T10:01:54.951Z,1007.17
2019-03-11T10:02:54.938Z,1007.18
2019-03-11T10:03:54.938Z,1007.19
2019-03-11T10:04:54.929Z,1007.15
2019-03-11T10:05:54.906Z,1007.16
2019-03-11T10:06:54.932Z,1007.16
2019-03-11T10:07:54.922Z,1007.15
2019-03-11T10:08:54.868Z,1007.13
2019-03-11T10:09:54.859Z,1007.09
2019-03-11T10:10:54.864Z,1007.13
2019-03-11T10:11:54.836Z,1007.09
2019-03-11T10:12:54.863Z,1007.13
2019-03-11T10:13:54.817Z,1007.16
2019-03-11T10:14:54.804Z,1007.17
2019-03-11T10:15:54.824Z,1007.14
2019-03-11T10:16:54.783Z,1007.15
2019-03-11T10:17:54.776Z,1007.14
2019-03-11T10:18:54.814Z,1007.11
2019-03-11T10:19:54.749Z,1007.20
2019-03-11T10:20:54.745Z,1007.24
2019-03-11T10:21:54.746Z,1007.16
2019-03-11T10:22:54.722Z,1007.20
2019-03-11T10:23:54.707Z,1007.18
2019-03-11T10:24:54.749Z,1007.20
2019-03-11T10:25:54.684Z,1007.18
2019-03-11T10:26:54.687Z,1007.15
2019-03-11T10:27:54.676Z,1007.16
2019-03-11T10:28:54.648Z,1007.11
2019-03-11T10:29:54.638Z,1007.09
2019-03-11T10:30:54.668Z,1007.08
2019-03-11T10:31:54.618Z,1007.03
2019-03-11T10:32:54.635Z,1007.07
2019-03-11T10:33:54.599Z,1007.14
2019-03-11T10:34:54.588Z,1007.09
2019-03-11T10:35:54.650Z,1007.05
2019-03-11T10:36:54.567Z,1007.03
2019-03-11T10:37:54.605Z,1007.07
2019-03-11T10:38:54.570Z,1007.10
2019-03-11T10:39:54.535Z,1007.10
2019-03-11T10:40:54.521Z,1007.12
2019-03-11T10:41:54.509Z,1007.10
2019-03-11T10:42:54.499Z,1007.11
2019-03-11T10:43:54.525Z,1007.08
2019-03-11T10:44:54.490Z,1007.05
2019-03-11T10:45:54.467Z,1007.09
2019-03-11T10:46:54.469Z,1007.08
2019-03-11T10:47:54.442Z,1007.16
2019-03-11T10:48:54.432Z,1007.09
2019-03-11T10:49:54.421Z,1007.11
2019-03-11T10:50:54.510Z,1007.06
2019-03-11T10:51:54.399Z,1007.12
2019-03-11T10:52:54.393Z,1007.16
2019-03-11T10:53:54.446Z,1007.15
2019-03-11T10:54:54.368Z,1007.17
2019-03-11T10:55:54.356Z,1007.17
2019-03-11T10:56:54.361Z,1007.14
2019-03-11T10:57:54.366Z,1007.25
2019-03-11T10:58:54.325Z,1007.35
2019-03-11T10:59:54.314Z,1007.33
2019-03-11T11:00:54.316Z,1007.28
2019-03-11T11:01:54.306Z,1007.35
2019-03-11T11:02:54.283Z,1007.35
2019-03-11T11:03:54.317Z,1007.46
2019-03-11T11:04:54.297Z,1007.36
2019-03-11T11:05:54.249Z,1007.45
2019-03-11T11:06:54.239Z,1007.48
2019-03-11T11:07:54.287Z,1007.48
2019-03-11T11:08:54.225Z,1007.55
2019-03-11T11:09:54.207Z,1007.57
2019-03-11T11:10:54.229Z,1007.62
2019-03-11T11:11:54.183Z,1007.54
2019-03-11T11:12:54.171Z,1007.49
2019-03-11T11:13:54.176Z,1007.44
2019-03-11T11:14:54.151Z,1007.53
2019-03-11T11:15:54.161Z,1007.56
2019-03-11T11:16:54.132Z,1007.54
2019-03-11T11:17:54.191Z,1007.52
2019-03-11T11:18:54.110Z,1007.55
2019-03-11T11:20:02.761Z,1007.51
2019-03-11T11:20:55.096Z,1007.57
2019-03-11T11:21:54.078Z,1007.51
2019-03-11T11:22:54.061Z,1007.49
2019-03-11T11:23:54.082Z,1007.62
2019-03-11T11:24:54.042Z,1007.63
2019-03-11T11:25:54.041Z,1007.61
2019-03-11T11:26:54.027Z,1007.66
2019-03-11T11:27:54.006Z,1007.59
2019-03-11T11:28:53.993Z,1007.65
2019-03-11T11:29:54.008Z,1007.71
2019-03-11T11:30:54.017Z,1007.73
2019-03-11T11:31:53.965Z,1007.77
2019-03-11T11:32:53.951Z,1007.87
2019-03-11T11:33:53.938Z,1007.93
2019-03-11T11:34:53.929Z,1007.92
2019-03-11T11:35:53.997Z,1007.94
2019-03-11T11:36:53.923Z,1007.93
2019-03-11T11:37:53.900Z,1007.95
2019-03-11T11:38:53.896Z,1008.01
2019-03-11T11:39:53.874Z,1008.05
2019-03-11T11:40:53.869Z,1007.97
2019-03-11T11:41:53.895Z,1008.04
2019-03-11T11:42:53.860Z,1008.14
2019-03-11T11:43:53.830Z,1008.03
2019-03-11T11:44:53.821Z,1008.06
2019-03-11T11:45:53.810Z,1008.01
2019-03-11T11:46:53.796Z,1008.07
2019-03-11T11:47:53.827Z,1008.05
2019-03-11T11:48:53.786Z,1007.99
2019-03-11T11:49:53.766Z,1007.96
2019-03-11T11:50:53.752Z,1007.99
2019-03-11T11:51:53.743Z,1007.93
2019-03-11T11:52:53.735Z,1007.89
2019-03-11T11:53:53.786Z,1007.92
2019-03-11T11:54:53.712Z,1007.89
2019-03-11T11:55:57.672Z,1007.92
2019-03-11T11:56:53.689Z,1007.93
2019-03-11T11:57:53.682Z,1007.94
2019-03-11T11:58:53.722Z,1007.95
2019-03-11T11:59:54.397Z,1007.90
2019-03-11T12:00:53.645Z,1007.89
2019-03-11T12:02:03.311Z,1007.83
2019-03-11T12:02:54.626Z,1007.83
2019-03-11T12:03:53.611Z,1007.89
2019-03-11T12:04:53.612Z,1007.87